createdAt,value
2018-07-04T00:00:15.057Z,1013.57
2018-07-04T00:01:15.026Z,1013.53
2018-07-04T00:02:15.003Z,1013.55
2018-07-04T00:03:14.975Z,1013.58
2018-07-04T00:04:14.954Z,1013.58
2018-07-04T00:05:14.924Z,1013.52
2018-07-04T00:06:14.899Z,1013.56
2018-07-04T00:07:14.875Z,1013.53
2018-07-04T00:08:14.849Z,1013.57
2018-07-04T00:09:14.822Z,1013.59
2018-07-04T00:10:14.799Z,1013.61
2018-07-04T00:11:14.776Z,1013.58
2018-07-04T00:12:14.754Z,1013.60
2018-07-04T00:13:14.725Z,1013.57
2018-07-04T00:14:14.701Z,1013.60
2018-07-04T00:15:14.673Z,1013.60
2018-07-04T00:16:14.649Z,1013.58
2018-07-04T00:17:14.629Z,1013.55
2018-07-04T00:18:14.598Z,1013.59
2018-07-04T00:19:14.576Z,1013.58
2018-07-04T00:20:14.553Z,1013.61
2018-07-04T00:21:14.557Z,1013.59
2018-07-04T00:22:14.501Z,1013.57
2018-07-04T00:23:14.475Z,1013.62
2018-07-04T00:24:14.453Z,1013.62
2018-07-04T00:25:14.423Z,1013.60
2018-07-04T00:26:14.401Z,1013.64
2018-07-04T00:27:14.374Z,1013.62
2018-07-04T00:28:14.347Z,1013.60
2018-07-04T00:29:14.321Z,1013.60
2018-07-04T00:30:14.301Z,1013.62
2018-07-04T00:31:14.274Z,1013.61
2018-07-04T00:32:14.247Z,1013.61
2018-07-04T00:33:14.222Z,1013.59
2018-07-04T00:34:14.206Z,1013.59
2018-07-04T00:35:14.171Z,1013.60
2018-07-04T00:36:14.146Z,1013.57
2018-07-04T00:37:14.121Z,1013.57
2018-07-04T00:38:14.095Z,1013.59
2018-07-04T00:39:14.069Z,1013.60
2018-07-04T00:40:14.044Z,1013.57
2018-07-04T00:41:14.019Z,1013.54
2018-07-04T00:42:13.995Z,1013.57
2018-07-04T00:43:13.969Z,1013.57
2018-07-04T00:44:13.946Z,1013.50
2018-07-04T00:45:13.921Z,1013.53
2018-07-04T00:46:13.894Z,1013.56
2018-07-04T00:47:13.888Z,1013.51
2018-07-04T00:48:13.843Z,1013.54
2018-07-04T00:49:13.823Z,1013.58
2018-07-04T00:50:13.796Z,1013.54
2018-07-04T00:51:13.768Z,1013.51
2018-07-04T00:52:13.744Z,1013.51
2018-07-04T00:53:13.719Z,1013.53
2018-07-04T00:54:13.691Z,1013.57
2018-07-04T00:55:13.668Z,1013.53
2018-07-04T00:56:13.649Z,1013.52
2018-07-04T00:57:13.618Z,1013.58
2018-07-04T00:58:13.592Z,1013.59
2018-07-04T00:59:13.564Z,1013.56
2018-07-04T01:00:13.542Z,1013.63
2018-07-04T01:01:13.537Z,1013.64
2018-07-04T01:02:13.690Z,1013.65
2018-07-04T01:03:13.465Z,1013.63
2018-07-04T01:04:13.439Z,1013.60
2018-07-04T01:05:13.414Z,1013.60
2018-07-04T01:06:13.592Z,1013.58
2018-07-04T01:07:13.564Z,1013.61
2018-07-04T01:08:13.337Z,1013.59
2018-07-04T01:09:13.311Z,1013.63
2018-07-04T01:10:13.285Z,1013.64
2018-07-04T01:11:13.265Z,1013.65
2018-07-04T01:12:13.235Z,1013.64
2018-07-04T01:13:13.209Z,1013.67
2018-07-04T01:14:13.185Z,1013.66
2018-07-04T01:15:13.161Z,1013.67
2018-07-04T01:16:13.141Z,1013.67
2018-07-04T01:17:13.110Z,1013.66
2018-07-04T01:18:13.085Z,1013.68
2018-07-04T01:19:13.057Z,1013.67
2018-07-04T01:20:13.034Z,1013.65
2018-07-04T01:21:13.008Z,1013.71
2018-07-04T01:22:12.980Z,1013.69
2018-07-04T01:23:12.958Z,1013.68
2018-07-04T01:24:12.934Z,1013.66
2018-07-04T01:25:12.906Z,1013.63
2018-07-04T01:26:12.881Z,1013.62
2018-07-04T01:27:12.854Z,1013.68
2018-07-04T01:28:12.829Z,1013.64
2018-07-04T01:29:12.802Z,1013.61
2018-07-04T01:30:12.777Z,1013.62
2018-07-04T01:31:12.754Z,1013.55
2018-07-04T01:32:12.728Z,1013.54
2018-07-04T01:33:12.701Z,1013.57
2018-07-04T01:34:12.679Z,1013.54
2018-07-04T01:35:12.650Z,1013.56
2018-07-04T01:36:12.625Z,1013.51
2018-07-04T01:37:12.601Z,1013.52
2018-07-04T01:38:12.574Z,1013.51
2018-07-04T01:39:12.550Z,1013.48
2018-07-04T01:40:12.525Z,1013.51
2018-07-04T01:41:12.500Z,1013.53
2018-07-04T01:42:12.476Z,1013.51
2018-07-04T01:43:12.449Z,1013.52
2018-07-04T01:44:12.424Z,1013.52
2018-07-04T01:45:12.400Z,1013.53
2018-07-04T01:46:12.372Z,1013.51
2018-07-04T01:47:12.345Z,1013.48
2018-07-04T01:48:12.321Z,1013.49
2018-07-04T01:49:12.294Z,1013.46
2018-07-04T01:50:12.269Z,1013.48
2018-07-04T01:51:12.244Z,1013.48
2018-07-04T01:52:12.223Z,1013.51
2018-07-04T01:53:12.194Z,1013.49
2018-07-04T01:54:12.169Z,1013.48
2018-07-04T01:55:12.154Z,1013.45
2018-07-04T01:56:12.116Z,1013.47
2018-07-04T01:57:12.094Z,1013.49
2018-07-04T01:58:12.067Z,1013.48
2018-07-04T01:59:12.040Z,1013.47
2018-07-04T02:00:12.017Z,1013.46
2018-07-04T02:01:11.988Z,1013.46
2018-07-04T02:02:11.963Z,1013.48
2018-07-04T02:03:11.940Z,1013.43
2018-07-04T02:04:11.920Z,1013.43
2018-07-04T02:05:11.901Z,1013.50
2018-07-04T02:06:11.863Z,1013.42
2018-07-04T02:07:11.836Z,1013.48
2018-07-04T02:08:11.814Z,1013.44
2018-07-04T02:09:11.790Z,1013.45
2018-07-04T02:10:11.759Z,1013.47
2018-07-04T02:11:11.938Z,1013.45
2018-07-04T02:12:11.711Z,1013.48
2018-07-04T02:13:11.683Z,1013.47
2018-07-04T02:14:11.663Z,1013.46
2018-07-04T02:15:11.634Z,1013.51
2018-07-04T02:16:11.611Z,1013.52
2018-07-04T02:17:11.582Z,1013.51
2018-07-04T02:18:11.568Z,1013.50
2018-07-04T02:19:11.533Z,1013.46
2018-07-04T02:20:11.503Z,1013.46
2018-07-04T02:21:11.477Z,1013.45
2018-07-04T02:22:11.456Z,1013.47
2018-07-04T02:23:11.428Z,1013.46
2018-07-04T02:24:11.404Z,1013.47
2018-07-04T02:25:11.380Z,1013.48
2018-07-04T02:26:11.352Z,1013.47
2018-07-04T02:27:11.339Z,1013.46
2018-07-04T02:28:11.300Z,1013.45
2018-07-04T02:29:11.273Z,1013.49
2018-07-04T02:30:11.249Z,1013.44
2018-07-04T02:31:11.223Z,1013.46
2018-07-04T02:32:11.197Z,1013.40
2018-07-04T02:33:11.173Z,1013.43
2018-07-04T02:34:11.148Z,1013.41
2018-07-04T02:35:11.125Z,1013.45
2018-07-04T02:36:11.102Z,1013.41
2018-07-04T02:37:11.071Z,1013.45
2018-07-04T02:38:11.050Z,1013.45
2018-07-04T02:39:11.224Z,1013.45
2018-07-04T02:40:10.991Z,1013.44
2018-07-04T02:41:11.169Z,1013.47
2018-07-04T02:42:10.941Z,1013.50
2018-07-04T02:43:10.917Z,1013.49
2018-07-04T02:44:10.893Z,1013.51
2018-07-04T02:45:10.872Z,1013.53
2018-07-04T02:46:10.841Z,1013.51
2018-07-04T02:47:10.815Z,1013.50
2018-07-04T02:48:10.789Z,1013.45
2018-07-04T02:49:10.768Z,1013.44
2018-07-04T02:50:10.742Z,1013.46
2018-07-04T02:51:10.718Z,1013.44
2018-07-04T02:52:10.686Z,1013.44
2018-07-04T02:53:10.811Z,1013.45
2018-07-04T02:54:10.667Z,1013.49
2018-07-04T02:55:10.611Z,1013.48
2018-07-04T02:56:10.585Z,1013.50
2018-07-04T02:57:10.559Z,1013.51
2018-07-04T02:58:10.535Z,1013.55
2018-07-04T02:59:10.506Z,1013.52
2018-07-04T03:00:10.481Z,1013.47
2018-07-04T03:01:10.454Z,1013.50
2018-07-04T03:02:10.440Z,1013.45
2018-07-04T03:03:10.406Z,1013.45
2018-07-04T03:04:10.379Z,1013.49
2018-07-04T03:05:10.353Z,1013.48
2018-07-04T03:06:10.327Z,1013.49
2018-07-04T03:07:10.304Z,1013.51
2018-07-04T03:08:10.278Z,1013.51
2018-07-04T03:09:10.252Z,1013.46
2018-07-04T03:10:10.226Z,1013.48
2018-07-04T03:11:10.201Z,1013.47
2018-07-04T03:12:10.174Z,1013.47
2018-07-04T03:13:10.148Z,1013.46
2018-07-04T03:14:10.123Z,1013.47
2018-07-04T03:15:10.098Z,1013.44
2018-07-04T03:16:10.074Z,1013.47
2018-07-04T03:17:10.052Z,1013.45
2018-07-04T03:18:10.021Z,1013.49
2018-07-04T03:19:10.002Z,1013.45
2018-07-04T03:20:09.972Z,1013.48
2018-07-04T03:21:09.944Z,1013.45
2018-07-04T03:22:09.921Z,1013.47
2018-07-04T03:23:09.895Z,1013.45
2018-07-04T03:24:09.867Z,1013.45
2018-07-04T03:25:09.841Z,1013.50
2018-07-04T03:26:09.816Z,1013.50
2018-07-04T03:27:09.793Z,1013.49
2018-07-04T03:28:09.766Z,1013.47
2018-07-04T03:29:09.740Z,1013.46
2018-07-04T03:30:09.716Z,1013.42
2018-07-04T03:31:09.695Z,1013.46
2018-07-04T03:32:09.664Z,1013.45
2018-07-04T03:33:09.639Z,1013.50
2018-07-04T03:34:09.611Z,1013.48
2018-07-04T03:35:09.588Z,1013.48
2018-07-04T03:36:09.564Z,1013.46
2018-07-04T03:37:09.537Z,1013.50
2018-07-04T03:38:09.511Z,1013.51
2018-07-04T03:39:09.485Z,1013.47
2018-07-04T03:40:09.461Z,1013.47
2018-07-04T03:41:09.434Z,1013.48
2018-07-04T03:42:09.408Z,1013.55
2018-07-04T03:43:09.384Z,1013.58
2018-07-04T03:44:09.372Z,1013.58
2018-07-04T03:45:09.334Z,1013.65
2018-07-04T03:46:09.313Z,1013.61
2018-07-04T03:47:09.284Z,1013.63
2018-07-04T03:48:09.256Z,1013.63
2018-07-04T03:49:09.230Z,1013.65
2018-07-04T03:50:09.210Z,1013.70
2018-07-04T03:51:09.180Z,1013.67
2018-07-04T03:52:09.160Z,1013.66
2018-07-04T03:53:09.130Z,1013.68
2018-07-04T03:54:09.107Z,1013.72
2018-07-04T03:55:09.082Z,1013.70
2018-07-04T03:56:09.057Z,1013.69
2018-07-04T03:57:09.031Z,1013.71
2018-07-04T03:58:09.067Z,1013.73
2018-07-04T03:59:08.981Z,1013.73
2018-07-04T04:00:08.956Z,1013.76
2018-07-04T04:01:08.931Z,1013.82
2018-07-04T04:02:08.910Z,1013.76
2018-07-04T04:03:08.885Z,1013.76
2018-07-04T04:04:08.862Z,1013.78
2018-07-04T04:05:08.835Z,1013.77
2018-07-04T04:06:08.812Z,1013.77
2018-07-04T04:07:08.789Z,1013.74
2018-07-04T04:08:08.764Z,1013.78
2018-07-04T04:09:08.738Z,1013.71
2018-07-04T04:10:08.756Z,1013.73
2018-07-04T04:11:08.890Z,1013.71
2018-07-04T04:12:08.663Z,1013.70
2018-07-04T04:13:08.639Z,1013.71
2018-07-04T04:14:08.616Z,1013.71
2018-07-04T04:15:08.597Z,1013.72
2018-07-04T04:16:08.773Z,1013.69
2018-07-04T04:17:08.547Z,1013.68
2018-07-04T04:18:08.521Z,1013.73
2018-07-04T04:19:08.498Z,1013.70
2018-07-04T04:20:08.474Z,1013.77
2018-07-04T04:21:08.450Z,1013.72
2018-07-04T04:22:08.432Z,1013.77
2018-07-04T04:23:08.403Z,1013.79
2018-07-04T04:24:08.383Z,1013.78
2018-07-04T04:25:08.356Z,1013.80
2018-07-04T04:26:08.333Z,1013.82
2018-07-04T04:27:08.336Z,1013.86
2018-07-04T04:28:08.293Z,1013.91
2018-07-04T04:29:08.265Z,1013.88
2018-07-04T04:30:08.447Z,1013.96
2018-07-04T04:31:08.421Z,1013.99
2018-07-04T04:32:08.196Z,1013.96
2018-07-04T04:33:08.178Z,1013.99
2018-07-04T04:34:08.351Z,1013.95
2018-07-04T04:35:08.138Z,1013.97
2018-07-04T04:36:08.111Z,1013.93
2018-07-04T04:37:08.089Z,1013.96
2018-07-04T04:38:08.083Z,1013.96
2018-07-04T04:39:08.038Z,1013.94
2018-07-04T04:40:08.218Z,1013.95
2018-07-04T04:41:08.198Z,1013.95
2018-07-04T04:42:08.173Z,1013.99
2018-07-04T04:43:08.152Z,1014.02
2018-07-04T04:44:09.344Z,1013.99
2018-07-04T04:45:07.905Z,1014.10
2018-07-04T04:46:07.898Z,1014.14
2018-07-04T04:47:07.861Z,1014.21
2018-07-04T04:48:07.837Z,1014.26
2018-07-04T04:49:07.817Z,1014.28
2018-07-04T04:50:07.794Z,1014.38
2018-07-04T04:51:07.975Z,1014.42
2018-07-04T04:52:07.961Z,1014.37
2018-07-04T04:53:07.730Z,1014.40
2018-07-04T04:54:07.708Z,1014.48
2018-07-04T04:55:07.902Z,1014.52
2018-07-04T04:56:07.668Z,1014.58
2018-07-04T04:57:07.644Z,1014.60
2018-07-04T04:58:07.621Z,1014.50
2018-07-04T04:59:07.599Z,1014.56
2018-07-04T05:00:07.579Z,1014.74
2018-07-04T05:01:07.553Z,1014.95
2018-07-04T05:02:07.539Z,1015.13
2018-07-04T05:03:07.715Z,1015.25
2018-07-04T05:04:07.490Z,1015.79
2018-07-04T05:05:07.468Z,1016.75
2018-07-04T05:06:07.649Z,1017.03
2018-07-04T05:07:07.424Z,1016.31
2018-07-04T05:08:07.411Z,1015.00
2018-07-04T05:09:07.582Z,1014.49
2018-07-04T05:10:07.561Z,1014.44
2018-07-04T05:11:07.338Z,1014.42
2018-07-04T05:12:07.319Z,1014.40
2018-07-04T05:13:07.295Z,1014.39
2018-07-04T05:14:07.274Z,1014.47
2018-07-04T05:15:07.254Z,1014.40
2018-07-04T05:16:07.234Z,1014.43
2018-07-04T05:17:07.215Z,1014.40
2018-07-04T05:18:07.193Z,1014.43
2018-07-04T05:19:07.171Z,1014.44
2018-07-04T05:20:07.351Z,1014.45
2018-07-04T05:21:07.126Z,1014.43
2018-07-04T05:22:07.106Z,1014.42
2018-07-04T05:23:07.088Z,1014.40
2018-07-04T05:24:07.067Z,1014.41
2018-07-04T05:25:07.045Z,1014.48
2018-07-04T05:26:07.226Z,1014.46
2018-07-04T05:27:07.005Z,1014.41
2018-07-04T05:28:06.984Z,1014.46
2018-07-04T05:29:06.961Z,1014.47
2018-07-04T05:30:06.943Z,1014.42
2018-07-04T05:31:07.732Z,1014.44
2018-07-04T05:32:06.900Z,1014.39
2018-07-04T05:33:07.081Z,1014.47
2018-07-04T05:34:06.860Z,1014.46
2018-07-04T05:35:06.856Z,1014.51
2018-07-04T05:36:06.820Z,1014.59
2018-07-04T05:37:06.801Z,1014.60
2018-07-04T05:38:06.780Z,1014.54
2018-07-04T05:39:06.757Z,1014.61
2018-07-04T05:40:06.741Z,1014.59
2018-07-04T05:41:06.723Z,1014.60
2018-07-04T05:42:06.698Z,1014.63
2018-07-04T05:43:06.882Z,1014.63
2018-07-04T05:44:06.660Z,1014.65
2018-07-04T05:45:06.639Z,1014.75
2018-07-04T05:46:06.620Z,1014.75
2018-07-04T05:47:06.598Z,1014.76
2018-07-04T05:48:06.578Z,1014.79
2018-07-04T05:49:06.557Z,1014.83
2018-07-04T05:50:06.540Z,1014.87
2018-07-04T05:51:06.520Z,1014.86
2018-07-04T05:52:06.501Z,1014.96
2018-07-04T05:53:06.684Z,1014.95
2018-07-04T05:54:06.464Z,1014.94
2018-07-04T05:55:06.443Z,1015.05
2018-07-04T05:56:06.432Z,1015.10
2018-07-04T05:57:06.402Z,1015.13
2018-07-04T05:58:06.383Z,1015.03
2018-07-04T05:59:06.364Z,1015.05
2018-07-04T06:00:06.548Z,1015.08
2018-07-04T06:01:06.528Z,1015.18
2018-07-04T06:02:06.509Z,1015.31
2018-07-04T06:03:06.290Z,1015.42
2018-07-04T06:04:06.473Z,1015.41
2018-07-04T06:05:06.253Z,1015.39
2018-07-04T06:06:06.233Z,1015.45
2018-07-04T06:07:06.212Z,1015.40
2018-07-04T06:08:06.196Z,1015.37
2018-07-04T06:09:06.215Z,1015.52
2018-07-04T06:10:06.369Z,1015.62
2018-07-04T06:11:06.341Z,1015.50
2018-07-04T06:12:06.322Z,1015.42
2018-07-04T06:13:48.462Z,1015.34
2018-07-04T06:14:48.440Z,1015.38
2018-07-04T06:15:48.422Z,1015.36
2018-07-04T06:17:48.382Z,1015.42
2018-07-04T06:18:48.364Z,1015.43
2018-07-04T06:19:48.146Z,1015.36
2018-07-04T06:20:48.331Z,1015.28
2018-07-04T06:21:48.113Z,1015.32
2018-07-04T06:22:48.303Z,1015.44
2018-07-04T06:23:48.071Z,1015.43
2018-07-04T06:24:48.132Z,1015.32
2018-07-04T06:25:48.234Z,1015.37
2018-07-04T06:26:49.228Z,1015.37
2018-07-04T06:27:47.997Z,1015.39
2018-07-04T06:28:47.978Z,1015.41
2018-07-04T06:29:47.964Z,1015.48
2018-07-04T06:30:47.943Z,1015.49
2018-07-04T06:31:47.925Z,1015.47
2018-07-04T06:32:47.910Z,1015.45
2018-07-04T06:33:47.892Z,1015.47
2018-07-04T06:34:48.077Z,1015.53
2018-07-04T06:35:47.869Z,1015.43
2018-07-04T06:36:47.836Z,1015.43
2018-07-04T06:37:47.821Z,1015.49
2018-07-04T06:38:47.801Z,1015.50
2018-07-04T06:39:47.987Z,1015.40
2018-07-04T06:40:47.771Z,1015.35
2018-07-04T06:41:47.952Z,1015.38
2018-07-04T06:42:47.731Z,1015.43
2018-07-04T06:43:47.917Z,1015.46
2018-07-04T06:44:47.900Z,1015.40
2018-07-04T06:45:47.680Z,1015.39
2018-07-04T06:46:47.662Z,1015.40
2018-07-04T06:47:47.644Z,1015.37
2018-07-04T06:48:47.639Z,1015.35
2018-07-04T06:49:47.610Z,1015.40
2018-07-04T06:50:47.590Z,1015.46
2018-07-04T06:51:47.578Z,1015.50
2018-07-04T06:52:47.557Z,1015.39
2018-07-04T06:53:47.546Z,1015.37
2018-07-04T06:54:47.528Z,1015.43
2018-07-04T06:55:47.707Z,1015.44
2018-07-04T06:56:47.489Z,1015.43
2018-07-04T06:57:47.471Z,1015.44
2018-07-04T06:58:47.452Z,1015.39
2018-07-04T06:59:47.436Z,1015.37
2018-07-04T07:00:47.420Z,1015.32
2018-07-04T07:08:07.026Z,1015.29
2018-07-04T07:09:06.802Z,1015.35
2018-07-04T07:10:06.781Z,1015.32
2018-07-04T07:11:06.770Z,1015.33
2018-07-04T07:12:06.748Z,1015.38
2018-07-04T07:13:06.746Z,1015.34
2018-07-04T07:14:06.713Z,1015.29
2018-07-04T07:15:09.584Z,1015.30
2018-07-04T07:16:06.685Z,1015.28
2018-07-04T07:17:06.867Z,1015.26
2018-07-04T07:18:06.650Z,1015.27
2018-07-04T07:19:06.839Z,1015.24
2018-07-04T07:20:06.620Z,1015.20
2018-07-04T07:21:06.656Z,1015.26
2018-07-04T07:22:06.583Z,1015.28
2018-07-04T07:23:06.570Z,1015.31
2018-07-04T07:24:06.555Z,1015.26
2018-07-04T07:25:06.536Z,1015.19
2018-07-04T07:26:06.528Z,1015.20
2018-07-04T07:27:06.507Z,1015.22
2018-07-04T07:28:06.698Z,1015.21
2018-07-04T07:29:06.682Z,1015.24
2018-07-04T07:30:06.460Z,1015.30
2018-07-04T07:31:06.445Z,1015.31
2018-07-04T07:32:06.484Z,1015.29
2018-07-04T07:33:06.416Z,1015.26
2018-07-04T07:34:06.712Z,1015.22
2018-07-04T07:35:06.586Z,1015.22
2018-07-04T07:36:06.386Z,1015.20
2018-07-04T07:37:06.358Z,1015.14
2018-07-04T07:38:06.354Z,1015.13
2018-07-04T07:39:06.528Z,1015.16
2018-07-04T07:40:06.317Z,1015.14
2018-07-04T07:41:06.299Z,1015.13
2018-07-04T07:42:06.484Z,1015.08
2018-07-04T07:43:06.466Z,1015.07
2018-07-04T07:44:06.452Z,1015.07
2018-07-04T07:45:06.439Z,1015.08
2018-07-04T07:46:06.426Z,1015.05
2018-07-04T07:47:06.409Z,1015.08
2018-07-04T07:48:06.394Z,1015.03
2018-07-04T07:49:06.176Z,1015.05
2018-07-04T07:50:06.159Z,1015.03
2018-07-04T07:51:06.346Z,1015.04
2018-07-04T07:52:06.334Z,1015.02
2018-07-04T07:53:06.140Z,1014.96
2018-07-04T07:54:06.146Z,1014.97
2018-07-04T07:55:06.295Z,1014.97
2018-07-04T07:56:06.073Z,1015.00
2018-07-04T07:57:06.056Z,1015.01
2018-07-04T07:58:06.040Z,1014.97
2018-07-04T07:59:06.228Z,1014.97
2018-07-04T08:00:06.213Z,1014.93
2018-07-04T08:01:05.999Z,1014.87
2018-07-04T08:02:05.984Z,1014.86
2018-07-04T08:03:05.964Z,1014.91
2018-07-04T08:04:05.948Z,1014.86
2018-07-04T08:05:05.932Z,1014.86
2018-07-04T08:06:05.920Z,1014.84
2018-07-04T08:07:05.907Z,1014.82
2018-07-04T08:08:05.892Z,1014.84
2018-07-04T08:09:05.878Z,1014.85
2018-07-04T08:10:05.861Z,1014.81
2018-07-04T08:11:06.045Z,1014.84
2018-07-04T08:12:05.830Z,1014.81
2018-07-04T08:13:06.015Z,1014.74
2018-07-04T08:14:05.800Z,1014.82
2018-07-04T08:15:05.986Z,1014.77
2018-07-04T08:16:05.770Z,1014.80
2018-07-04T08:17:05.756Z,1014.76
2018-07-04T08:18:05.740Z,1014.75
2018-07-04T08:19:05.728Z,1014.77
2018-07-04T08:20:05.707Z,1014.80
2018-07-04T08:21:05.692Z,1014.82
2018-07-04T08:22:05.681Z,1014.80
2018-07-04T08:23:05.872Z,1014.81
2018-07-04T08:24:05.658Z,1014.75
2018-07-04T08:25:05.635Z,1014.79
2018-07-04T08:26:05.824Z,1014.81
2018-07-04T08:27:05.809Z,1014.81
2018-07-04T08:28:05.795Z,1014.76
2018-07-04T08:29:05.578Z,1014.72
2018-07-04T08:30:05.763Z,1014.78
2018-07-04T08:31:05.752Z,1014.77
2018-07-04T08:32:05.533Z,1014.74
2018-07-04T08:33:05.516Z,1014.76
2018-07-04T08:34:05.708Z,1014.71
2018-07-04T08:35:05.693Z,1014.70
2018-07-04T08:36:05.477Z,1014.69
2018-07-04T08:37:05.468Z,1014.72
2018-07-04T08:38:05.446Z,1014.71
2018-07-04T08:39:05.642Z,1014.68
2018-07-04T08:40:05.622Z,1014.63
2018-07-04T08:41:05.404Z,1014.56
2018-07-04T08:42:05.591Z,1014.56
2018-07-04T08:43:05.383Z,1014.54
2018-07-04T08:44:05.365Z,1014.52
2018-07-04T08:45:05.348Z,1014.54
2018-07-04T08:46:05.334Z,1014.53
2018-07-04T08:47:05.320Z,1014.47
2018-07-04T08:48:05.310Z,1014.53
2018-07-04T08:49:05.293Z,1014.56
2018-07-04T08:50:05.276Z,1014.58
2018-07-04T08:51:05.275Z,1014.54
2018-07-04T08:52:05.450Z,1014.50
2018-07-04T08:53:05.234Z,1014.54
2018-07-04T08:54:05.424Z,1014.54
2018-07-04T08:55:05.214Z,1014.54
2018-07-04T08:56:05.404Z,1014.54
2018-07-04T08:57:05.179Z,1014.55
2018-07-04T08:58:05.175Z,1014.53
2018-07-04T08:59:47.516Z,1014.51
2018-07-04T09:00:47.300Z,1014.56
2018-07-04T09:01:48.095Z,1014.54
2018-07-04T09:02:47.270Z,1014.58
2018-07-04T09:03:47.257Z,1014.59
2018-07-04T09:04:47.242Z,1014.63
2018-07-04T09:05:47.439Z,1014.65
2018-07-04T09:06:47.217Z,1014.65
2018-07-04T09:07:47.204Z,1014.60
2018-07-04T09:08:47.190Z,1014.65
2018-07-04T09:09:47.378Z,1014.57
2018-07-04T09:10:47.368Z,1014.58
2018-07-04T09:11:47.155Z,1014.48
2018-07-04T09:12:47.135Z,1014.45
2018-07-04T09:13:47.122Z,1014.46
2018-07-04T09:14:47.109Z,1014.42
2018-07-04T09:15:47.103Z,1014.43
2018-07-04T09:16:50.919Z,1014.43
2018-07-04T09:17:47.070Z,1014.44
2018-07-04T09:18:47.261Z,1014.42
2018-07-04T09:19:47.044Z,1014.42
2018-07-04T09:20:47.033Z,1014.42
2018-07-04T09:21:47.020Z,1014.38
2018-07-04T09:22:47.005Z,1014.30
2018-07-04T09:58:13.035Z,1013.41
2018-07-04T09:59:12.813Z,1013.44
2018-07-04T10:00:12.793Z,1013.53
2018-07-04T11:36:04.550Z,1013.95
2018-07-04T11:37:04.537Z,1013.92
2018-07-04T11:38:04.324Z,1013.93
2018-07-04T11:39:04.309Z,1013.87
2018-07-04T11:40:04.295Z,1013.85
2018-07-04T11:41:04.291Z,1013.88
2018-07-04T11:42:04.273Z,1013.87
2018-07-04T11:43:04.466Z,1013.88
2018-07-04T11:44:04.455Z,1013.79
2018-07-04T11:45:04.452Z,1013.84
2018-07-04T11:46:04.433Z,1013.84
2018-07-04T11:47:04.421Z,1013.82
2018-07-04T11:48:04.412Z,1013.78
2018-07-04T11:49:04.197Z,1013.83
2018-07-04T11:50:04.389Z,1013.81
2018-07-04T11:51:04.175Z,1013.80
2018-07-04T11:52:04.368Z,1013.82
2018-07-04T11:53:04.397Z,1013.82
2018-07-04T11:54:04.349Z,1013.74
2018-07-04T11:55:04.137Z,1013.80
2018-07-04T11:56:04.328Z,1013.77
2018-07-04T11:57:04.150Z,1013.71
2018-07-04T11:58:04.107Z,1013.73
2018-07-04T11:59:04.296Z,1013.72
2018-07-04T12:00:04.085Z,1013.77
2018-07-04T12:01:04.075Z,1013.80
2018-07-04T12:02:04.266Z,1013.75
2018-07-04T12:03:04.062Z,1013.70
2018-07-04T12:04:06.902Z,1013.75
2018-07-04T12:05:04.037Z,1013.84
2018-07-04T12:06:04.234Z,1013.78
2018-07-04T12:07:04.220Z,1013.80
2018-07-04T12:08:04.010Z,1013.89
2018-07-04T12:09:04.010Z,1013.77
2018-07-04T12:10:04.193Z,1013.83
2018-07-04T12:11:04.181Z,1013.77
2018-07-04T12:12:04.171Z,1013.74
2018-07-04T12:13:03.961Z,1013.79
2018-07-04T12:14:03.955Z,1013.75
2018-07-04T12:15:03.941Z,1013.72
2018-07-04T12:16:04.134Z,1013.78
2018-07-04T12:17:03.923Z,1013.70
2018-07-04T12:18:03.920Z,1013.71
2018-07-04T12:19:03.901Z,1013.72
2018-07-04T12:20:03.892Z,1013.69
2018-07-04T12:21:03.962Z,1013.68
2018-07-04T12:22:04.084Z,1013.66
2018-07-04T12:23:03.862Z,1013.74
2018-07-04T12:24:03.856Z,1013.71
2018-07-04T12:25:03.843Z,1013.69
2018-07-04T12:26:03.832Z,1013.68
2018-07-04T12:27:03.827Z,1013.73
2018-07-04T12:28:03.819Z,1013.77
2018-07-04T12:29:03.808Z,1013.78
2018-07-04T12:30:03.798Z,1013.77
2018-07-04T12:31:03.994Z,1013.74
2018-07-04T12:32:04.096Z,1013.71
2018-07-04T12:33:03.969Z,1013.76
2018-07-04T12:34:03.756Z,1013.77
2018-07-04T12:35:03.750Z,1013.78
2018-07-04T12:36:03.740Z,1013.72
2018-07-04T12:37:03.731Z,1013.71
2018-07-04T12:38:03.724Z,1013.78
2018-07-04T12:39:03.713Z,1013.78
2018-07-04T12:40:03.701Z,1013.79
2018-07-04T12:41:03.686Z,1013.75
2018-07-04T12:42:03.679Z,1013.80
2018-07-04T12:43:03.681Z,1013.73
2018-07-04T12:44:03.661Z,1013.71
2018-07-04T12:45:03.652Z,1013.67
2018-07-04T12:46:03.640Z,1013.74
2018-07-04T12:47:03.653Z,1013.79
2018-07-04T12:48:03.617Z,1013.80
2018-07-04T12:49:03.607Z,1013.77
2018-07-04T12:50:03.597Z,1013.78
2018-07-04T12:51:03.610Z,1013.72
2018-07-04T12:52:03.580Z,1013.78
2018-07-04T12:53:03.574Z,1013.80
2018-07-04T12:54:03.654Z,1013.82
2018-07-04T12:55:03.547Z,1013.82
2018-07-04T12:56:03.541Z,1013.79
2018-07-04T12:57:03.526Z,1013.77
2018-07-04T12:58:03.516Z,1013.86
2018-07-04T12:59:03.503Z,1013.79
2018-07-04T13:00:03.494Z,1013.78
2018-07-04T13:01:03.482Z,1013.76
2018-07-04T13:02:03.473Z,1013.78
2018-07-04T13:03:03.529Z,1013.54
2018-07-04T13:04:03.657Z,1013.10
2018-07-04T13:05:03.650Z,1013.33
2018-07-04T13:06:03.634Z,1013.73
2018-07-04T13:07:03.627Z,1013.74
2018-07-04T13:08:03.408Z,1013.80
2018-07-04T13:09:03.397Z,1013.87
2018-07-04T13:10:03.589Z,1013.84
2018-07-04T13:11:03.381Z,1013.87
2018-07-04T13:12:03.366Z,1013.72
2018-07-04T13:13:03.353Z,1013.81
2018-07-04T13:14:03.381Z,1013.84
2018-07-04T13:15:03.336Z,1013.85
2018-07-04T13:16:03.328Z,1013.88
2018-07-04T13:17:03.314Z,1013.93
2018-07-04T13:18:03.304Z,1013.90
2018-07-04T13:19:03.292Z,1013.93
2018-07-04T13:20:03.483Z,1013.95
2018-07-04T13:21:03.270Z,1013.93
2018-07-04T13:22:03.260Z,1013.88
2018-07-04T13:23:05.876Z,1013.91
2018-07-04T13:24:03.247Z,1013.89
2018-07-04T13:25:03.232Z,1013.90
2018-07-04T13:26:03.221Z,1013.96
2018-07-04T13:27:03.211Z,1013.96
2018-07-04T13:28:03.200Z,1013.94
2018-07-04T13:29:03.189Z,1013.94
2018-07-04T13:30:03.185Z,1013.85
2018-07-04T13:31:03.170Z,1013.90
2018-07-04T13:32:03.210Z,1014.04
2018-07-04T13:33:03.146Z,1014.00
2018-07-04T13:34:03.136Z,1013.94
2018-07-04T13:35:03.128Z,1014.00
2018-07-04T13:36:03.122Z,1014.02
2018-07-04T13:37:03.106Z,1013.97
2018-07-04T13:38:03.097Z,1014.10
2018-07-04T13:39:03.089Z,1014.21
2018-07-04T13:40:03.076Z,1014.27
2018-07-04T13:41:03.065Z,1014.43
2018-07-04T13:42:03.054Z,1014.59
2018-07-04T13:43:03.070Z,1014.79
2018-07-04T13:44:03.047Z,1014.73
2018-07-04T13:45:03.032Z,1014.97
2018-07-04T13:46:03.012Z,1015.21
2018-07-04T13:47:03.006Z,1015.31
2018-07-04T13:48:02.996Z,1015.58
2018-07-04T13:49:02.983Z,1015.88
2018-07-04T13:50:02.977Z,1015.93
2018-07-04T13:51:02.966Z,1016.13
2018-07-04T13:52:02.953Z,1016.35
2018-07-04T13:53:02.943Z,1016.21
2018-07-04T13:54:02.932Z,1016.71
2018-07-04T13:55:02.924Z,1016.73
2018-07-04T13:56:02.924Z,1016.91
2018-07-04T13:57:03.321Z,1017.42
2018-07-04T13:58:02.900Z,1017.53
2018-07-04T13:59:02.883Z,1017.86
2018-07-04T14:00:02.873Z,1018.46
2018-07-04T14:01:02.861Z,1019.05
2018-07-04T14:02:02.855Z,1018.91
2018-07-04T14:03:02.840Z,1018.57
2018-07-04T14:04:02.837Z,1019.10
2018-07-04T14:05:02.821Z,1019.50
2018-07-04T14:06:02.807Z,1019.87
2018-07-04T14:07:02.800Z,1020.34
2018-07-04T14:08:45.152Z,1020.53
2018-07-04T14:09:48.980Z,1020.66
2018-07-04T14:10:45.130Z,1020.84
2018-07-04T14:11:44.916Z,1020.93
2018-07-04T14:12:44.905Z,1020.93
2018-07-04T14:13:44.898Z,1021.22
2018-07-04T14:14:44.883Z,1021.76
2018-07-04T14:15:44.876Z,1021.75
2018-07-04T14:16:44.865Z,1021.70
2018-07-04T14:17:44.853Z,1021.79
2018-07-04T14:18:44.843Z,1022.16
2018-07-04T14:19:44.830Z,1022.32
2018-07-04T14:20:44.819Z,1022.15
2018-07-04T14:21:44.828Z,1022.37
2018-07-04T14:22:44.796Z,1022.94
2018-07-04T14:23:44.787Z,1021.87